Time;durP1;ratioP1;P1;durP2;ratioP2;P2;SDS_P1;SDS_P2;PMS_P1;PMS_P2;Temp;Humidity;BMP_temperature;BMP_pressure;BME280_temperature;BME280_humidity;BME280_pressure;Samples;Min_cycle;Max_cycle;Signal;HPM_P1;HPM_P2
2022/07/05 00:01:36;;;;;;;14.20;13.00;;;;;;;16.89;85.33;100634.80;84910;1324;22570;-71
2022/07/05 00:03:44;;;;;;;15.10;13.70;;;;;;;16.87;85.48;100635.61;84886;1326;22600;-71
2022/07/05 00:05:52;;;;;;;14.20;12.50;;;;;;;16.85;85.40;100635.11;84874;1324;22587;-71
2022/07/05 00:07:59;;;;;;;16.00;14.30;;;;;;;16.81;85.41;100631.42;84845;1327;25288;-71
2022/07/05 00:10:08;;;;;;;14.10;12.90;;;;;;;16.77;85.38;100631.12;84917;1318;22577;-71
2022/07/05 00:12:16;;;;;;;14.80;13.50;;;;;;;16.75;85.43;100631.44;84887;1327;22554;-72
2022/07/05 00:14:23;;;;;;;14.10;12.90;;;;;;;16.73;85.54;100632.41;84906;1322;22619;-72
2022/07/05 00:16:31;;;;;;;13.10;11.90;;;;;;;16.71;85.44;100632.52;84805;1326;22581;-72
2022/07/05 00:18:38;;;;;;;15.90;12.00;;;;;;;16.68;85.41;100628.95;84934;1324;22608;-72
2022/07/05 00:20:46;;;;;;;14.40;12.90;;;;;;;16.66;85.43;100627.83;84868;1327;22617;-71
2022/07/05 00:22:54;;;;;;;14.40;12.90;;;;;;;16.65;85.83;100632.87;84930;1322;22576;-72
2022/07/05 00:25:01;;;;;;;14.10;12.80;;;;;;;16.63;85.89;100629.09;84853;1323;22647;-71
2022/07/05 00:27:09;;;;;;;14.10;12.90;;;;;;;16.61;85.95;100626.40;84907;1324;22618;-72
2022/07/05 00:29:16;;;;;;;15.10;13.10;;;;;;;16.58;85.94;100625.00;84870;1326;22726;-71
2022/07/05 00:31:24;;;;;;;13.90;12.60;;;;;;;16.55;85.95;100621.66;84922;1325;24342;-72
2022/07/05 00:33:31;;;;;;;13.50;12.40;;;;;;;16.52;85.88;100616.91;84777;1325;22603;-72
2022/07/05 00:35:39;;;;;;;12.90;11.70;;;;;;;16.48;85.91;100619.73;84936;1325;22699;-70
2022/07/05 00:37:47;;;;;;;13.00;11.70;;;;;;;16.47;85.84;100621.42;84888;1324;22619;-71
2022/07/05 00:39:54;;;;;;;12.70;11.60;;;;;;;16.44;85.85;100623.89;84950;1325;22663;-71
2022/07/05 00:42:02;;;;;;;12.10;11.00;;;;;;;16.41;85.95;100627.05;84918;1324;22582;-71
2022/07/05 00:44:11;;;;;;;12.30;11.30;;;;;;;16.40;86.03;100632.77;84869;1329;22663;-71
2022/07/05 00:46:19;;;;;;;14.40;13.10;;;;;;;16.39;86.27;100643.40;84934;1318;22676;-71
2022/07/05 00:48:26;;;;;;;20.50;18.60;;;;;;;16.39;86.34;100645.10;84843;1326;22705;-71
2022/07/05 00:50:34;;;;;;;16.70;15.10;;;;;;;16.40;86.59;100645.77;84877;1324;22590;-71
2022/07/05 00:52:41;;;;;;;14.60;13.20;;;;;;;16.41;86.66;100650.64;84877;1327;22595;-71
2022/07/05 00:54:49;;;;;;;13.90;12.70;;;;;;;16.44;86.94;100654.52;84890;1324;22609;-72
2022/07/05 00:56:57;;;;;;;12.90;11.80;;;;;;;16.47;86.94;100658.61;84870;1325;22754;-72
2022/07/05 00:59:04;;;;;;;13.00;11.60;;;;;;;16.50;87.18;100662.27;84874;1324;22583;-71
2022/07/05 01:01:12;;;;;;;12.30;11.20;;;;;;;16.54;87.25;100659.92;84929;1325;22606;-72
2022/07/05 01:03:19;;;;;;;12.70;11.50;;;;;;;16.57;87.17;100664.33;84818;1325;22786;-71
2022/07/05 01:05:27;;;;;;;12.00;11.00;;;;;;;16.59;86.98;100664.79;84917;1318;22668;-72
2022/07/05 01:07:35;;;;;;;12.50;11.20;;;;;;;16.59;87.32;100661.58;84776;1325;26879;-71
2022/07/05 01:09:42;;;;;;;12.50;11.30;;;;;;;16.60;87.10;100664.35;84834;1324;25403;-71
2022/07/05 01:11:51;;;;;;;12.50;11.00;;;;;;;16.59;87.05;100669.33;84721;1326;25460;-71
2022/07/05 01:13:58;;;;;;;11.70;10.70;;;;;;;16.58;87.09;100676.07;84916;1324;25746;-71
2022/07/05 01:16:07;;;;;;;12.10;10.50;;;;;;;16.57;87.04;100677.41;84945;1325;22590;-71
2022/07/05 01:18:14;;;;;;;11.40;10.50;;;;;;;16.53;86.85;100680.98;84845;1318;24340;-71
2022/07/05 01:20:22;;;;;;;12.10;10.90;;;;;;;16.49;86.83;100682.05;84917;1324;25581;-71
2022/07/05 01:22:34;;;;;;;12.30;11.20;;;;;;;16.47;86.92;100684.30;84866;1326;24224;-72
2022/07/05 01:24:42;;;;;;;11.90;10.90;;;;;;;16.45;86.92;100686.88;84904;1325;22587;-72
2022/07/05 01:26:50;;;;;;;12.00;10.80;;;;;;;16.43;87.03;100689.80;84878;1321;22611;-72
2022/07/05 01:28:57;;;;;;;11.40;10.50;;;;;;;16.41;87.12;100686.94;84932;1324;22607;-72
2022/07/05 01:31:05;;;;;;;11.60;10.50;;;;;;;16.41;87.29;100682.16;84887;1326;22702;-72
2022/07/05 01:33:13;;;;;;;12.10;11.10;;;;;;;16.42;87.33;100681.58;84906;1321;24423;-72
2022/07/05 01:35:23;;;;;;;11.00;10.10;;;;;;;16.41;87.10;100678.11;84842;1326;22574;-71
2022/07/05 01:37:30;;;;;;;12.30;11.10;;;;;;;16.38;87.04;100676.34;84862;1321;22587;-71
2022/07/05 01:39:38;;;;;;;11.80;10.90;;;;;;;16.35;87.23;100674.92;84892;1326;22710;-71
2022/07/05 01:41:45;;;;;;;12.60;11.10;;;;;;;16.34;87.21;100675.02;84947;1319;22694;-71
2022/07/05 01:43:53;;;;;;;11.90;10.90;;;;;;;16.32;87.11;100674.27;84882;1327;22601;-72
2022/07/05 01:46:01;;;;;;;11.60;10.60;;;;;;;16.29;87.27;100675.61;84931;1327;22587;-72
2022/07/05 01:48:11;;;;;;;12.80;11.60;;;;;;;16.29;87.55;100678.60;84869;1325;25439;-72
2022/07/05 01:50:18;;;;;;;12.60;10.30;;;;;;;16.29;87.58;100684.63;84925;1324;24261;-72
2022/07/05 01:52:26;;;;;;;12.70;11.40;;;;;;;16.29;87.74;100682.52;84897;1327;24319;-72
2022/07/05 01:54:33;;;;;;;12.00;10.90;;;;;;;16.29;87.88;100682.89;84944;1324;22599;-72
2022/07/05 01:56:41;;;;;;;12.10;10.60;;;;;;;16.29;87.84;100679.35;84884;1327;24216;-71
2022/07/05 01:58:49;;;;;;;15.40;11.60;;;;;;;16.28;87.95;100681.14;84908;1325;22607;-72
2022/07/05 02:00:57;;;;;;;12.10;11.00;;;;;;;16.30;88.00;100687.72;84890;1322;22607;-71
2022/07/05 02:03:05;;;;;;;11.60;10.40;;;;;;;16.32;88.10;100693.95;84926;1324;22579;-71
2022/07/05 02:05:12;;;;;;;12.50;11.20;;;;;;;16.34;88.17;100698.95;84929;1324;22573;-71
2022/07/05 02:07:20;;;;;;;11.10;10.00;;;;;;;16.35;88.12;100693.98;84799;1326;22571;-72
2022/07/05 02:09:27;;;;;;;14.80;11.70;;;;;;;16.34;88.11;100691.87;84837;1324;22576;-71
2022/07/05 02:11:35;;;;;;;11.30;10.40;;;;;;;16.35;88.06;100689.02;84799;1327;22598;-72
2022/07/05 02:13:43;;;;;;;12.20;11.00;;;;;;;16.35;88.18;100690.41;84773;1324;25646;-71
2022/07/05 02:15:50;;;;;;;19.20;11.30;;;;;;;16.37;88.16;100691.94;84844;1322;22764;-71
2022/07/05 02:17:58;;;;;;;11.80;10.70;;;;;;;16.39;88.35;100697.58;84867;1326;22588;-73
2022/07/05 02:20:07;;;;;;;15.30;10.90;;;;;;;16.41;88.31;100697.30;84771;1325;25461;-72
2022/07/05 02:22:14;;;;;;;11.50;10.50;;;;;;;16.44;88.23;100695.34;84826;1324;25618;-71
2022/07/05 02:24:21;;;;;;;12.00;10.90;;;;;;;16.45;88.20;100691.25;84815;1321;22648;-71
2022/07/05 02:26:29;;;;;;;11.30;10.30;;;;;;;16.48;88.20;100694.27;84926;1321;22609;-72
2022/07/05 02:28:36;;;;;;;12.10;10.60;;;;;;;16.50;88.08;100695.73;84866;1327;22616;-71
2022/07/05 02:30:44;;;;;;;13.80;9.80;;;;;;;16.52;88.01;100703.00;84862;1324;22586;-72
2022/07/05 02:32:51;;;;;;;9.40;8.60;;;;;;;16.54;88.07;100706.43;84870;1326;22588;-71
2022/07/05 02:34:59;;;;;;;9.40;8.50;;;;;;;16.55;88.06;100703.91;84837;1326;22650;-72
2022/07/05 02:37:07;;;;;;;9.80;8.80;;;;;;;16.57;88.02;100704.48;84766;1327;22588;-72
2022/07/05 02:39:14;;;;;;;8.50;7.70;;;;;;;16.59;87.98;100706.48;84837;1323;22669;-72
2022/07/05 02:41:22;;;;;;;9.60;8.70;;;;;;;16.60;88.04;100706.60;84868;1326;23036;-72
2022/07/05 02:43:29;;;;;;;8.90;8.00;;;;;;;16.62;87.86;100705.84;84924;1324;22596;-72
2022/07/05 02:45:36;;;;;;;8.60;7.90;;;;;;;16.64;87.85;100701.11;84618;1326;357253;-71
2022/07/05 02:47:44;;;;;;;9.10;8.20;;;;;;;16.66;87.82;100696.38;84901;1324;22768;-71
2022/07/05 02:49:53;;;;;;;9.80;9.00;;;;;;;16.71;87.77;100691.90;84907;1327;22646;-72
2022/07/05 02:52:00;;;;;;;11.50;9.30;;;;;;;16.74;87.73;100692.24;84947;1326;22585;-72
2022/07/05 02:54:08;;;;;;;10.90;8.30;;;;;;;16.80;87.89;100698.44;84914;1326;22589;-71
2022/07/05 02:56:15;;;;;;;9.50;8.60;;;;;;;16.84;87.66;100698.42;84936;1322;22826;-71
2022/07/05 02:58:23;;;;;;;9.30;8.40;;;;;;;16.86;87.48;100704.95;84848;1322;22577;-71
2022/07/05 03:00:30;;;;;;;8.40;7.70;;;;;;;16.89;87.28;100706.68;84833;1324;24240;-72
2022/07/05 03:02:38;;;;;;;8.30;7.60;;;;;;;16.94;87.35;100716.09;84777;1324;22586;-70
2022/07/05 03:04:45;;;;;;;7.90;6.90;;;;;;;16.99;87.18;100718.78;84845;1324;24366;-71
2022/07/05 03:06:53;;;;;;;6.60;6.00;;;;;;;17.06;87.19;100725.82;84768;1326;22581;-72
2022/07/05 03:09:00;;;;;;;8.80;6.80;;;;;;;17.11;87.08;100724.96;84875;1324;22574;-72
2022/07/05 03:11:07;;;;;;;7.90;6.80;;;;;;;17.16;87.00;100725.94;84887;1329;23445;-71
2022/07/05 03:13:15;;;;;;;7.00;6.40;;;;;;;17.21;86.82;100734.09;84953;1325;22703;-72
2022/07/05 03:15:23;;;;;;;6.90;6.30;;;;;;;17.24;86.51;100729.12;84883;1326;22635;-72
2022/07/05 03:17:30;;;;;;;8.70;6.20;;;;;;;17.27;86.28;100725.05;84864;1324;22593;-72
2022/07/05 03:19:38;;;;;;;6.20;5.60;;;;;;;17.31;86.01;100722.59;84880;1325;22586;-72
2022/07/05 03:21:45;;;;;;;8.30;5.80;;;;;;;17.33;85.94;100722.74;84848;1324;22538;-71
2022/07/05 03:23:53;;;;;;;6.90;5.60;;;;;;;17.37;85.76;100730.83;84769;1327;22590;-71
2022/07/05 03:26:00;;;;;;;5.80;5.00;;;;;;;17.39;85.60;100739.86;84854;1324;25448;-71
2022/07/05 03:28:08;;;;;;;5.80;5.40;;;;;;;17.40;85.15;100743.71;84761;1322;22625;-71
2022/07/05 03:30:16;;;;;;;5.90;5.40;;;;;;;17.41;85.15;100743.61;84929;1323;22591;-71
2022/07/05 03:32:24;;;;;;;5.10;4.50;;;;;;;17.43;84.90;100742.08;84799;1326;25339;-71
2022/07/05 03:34:31;;;;;;;5.80;5.30;;;;;;;17.44;84.62;100734.45;84945;1327;22593;-71
2022/07/05 03:36:39;;;;;;;6.30;4.90;;;;;;;17.47;84.47;100733.38;84871;1328;22839;-71
2022/07/05 03:38:46;;;;;;;5.30;4.70;;;;;;;17.48;84.20;100730.98;84841;1324;22584;-70
2022/07/05 03:40:53;;;;;;;12.90;5.70;;;;;;;17.52;84.06;100727.60;84871;1326;22688;-71
2022/07/05 03:43:01;;;;;;;12.40;6.50;;;;;;;17.56;83.47;100722.94;84921;1327;22604;-72
2022/07/05 03:45:11;;;;;;;15.20;5.70;;;;;;;17.61;82.88;100725.13;84932;1327;22596;-71
2022/07/05 03:47:20;;;;;;;16.60;5.20;;;;;;;17.63;82.54;100725.17;84895;1328;22658;-72
2022/07/05 03:49:28;;;;;;;29.20;6.80;;;;;;;17.63;81.79;100728.70;84891;1318;22645;-71
2022/07/05 03:51:35;;;;;;;16.90;5.10;;;;;;;17.62;81.47;100728.05;84883;1326;22593;-73
2022/07/05 03:53:42;;;;;;;10.20;4.30;;;;;;;17.62;80.80;100728.77;84907;1324;22701;-71
2022/07/05 03:55:50;;;;;;;6.80;3.80;;;;;;;17.61;80.24;100728.50;84780;1325;22640;-71
2022/07/05 03:57:57;;;;;;;12.80;4.10;;;;;;;17.60;79.90;100726.41;84810;1324;22594;-71
2022/07/05 04:00:06;;;;;;;10.30;4.00;;;;;;;17.61;79.59;100735.67;84714;1327;23746;-71
2022/07/05 04:02:14;;;;;;;12.40;4.50;;;;;;;17.62;78.94;100740.77;84845;1324;22539;-70
2022/07/05 04:04:21;;;;;;;13.30;5.00;;;;;;;17.62;78.59;100741.27;84879;1327;26641;-72
2022/07/05 04:06:28;;;;;;;17.40;5.00;;;;;;;17.63;78.17;100744.57;84940;1324;22600;-71
2022/07/05 04:08:36;;;;;;;22.00;6.30;;;;;;;17.65;77.83;100742.90;84891;1328;22591;-71
2022/07/05 04:10:43;;;;;;;10.70;4.30;;;;;;;17.65;77.50;100742.00;84890;1324;25287;-72
2022/07/05 04:12:50;;;;;;;20.50;5.50;;;;;;;17.66;77.36;100743.51;84847;1327;22603;-72
2022/07/05 04:14:58;;;;;;;30.50;6.80;;;;;;;17.67;77.31;100744.67;84898;1327;25332;-72
2022/07/05 04:17:06;;;;;;;18.20;4.20;;;;;;;17.69;77.01;100746.89;84919;1327;24227;-71
2022/07/05 04:19:13;;;;;;;29.60;5.10;;;;;;;17.69;76.64;100748.26;84831;1324;22598;-72
2022/07/05 04:21:20;;;;;;;14.20;3.40;;;;;;;17.71;76.37;100747.41;84920;1325;22584;-72
2022/07/05 04:23:28;;;;;;;12.90;5.00;;;;;;;17.73;76.11;100747.16;84899;1324;22646;-71
2022/07/05 04:25:35;;;;;;;15.60;3.40;;;;;;;17.74;75.47;100743.95;84869;1325;24369;-72
2022/07/05 04:27:43;;;;;;;12.20;3.30;;;;;;;17.76;75.61;100746.98;84918;1324;22589;-72
2022/07/05 04:29:50;;;;;;;8.50;3.00;;;;;;;17.79;75.57;100752.64;84884;1326;22621;-72
2022/07/05 04:31:58;;;;;;;8.70;3.20;;;;;;;17.82;75.37;100750.29;84958;1324;22597;-72
2022/07/05 04:34:05;;;;;;;19.60;3.40;;;;;;;17.86;75.22;100752.34;84850;1326;22604;-72
2022/07/05 04:36:13;;;;;;;12.00;3.00;;;;;;;17.91;75.42;100744.27;84914;1327;22576;-72
2022/07/05 04:38:20;;;;;;;16.20;3.60;;;;;;;17.96;74.50;100736.92;84889;1327;22619;-72
2022/07/05 04:40:27;;;;;;;15.20;4.00;;;;;;;18.01;74.47;100734.95;84860;1324;22649;-72
2022/07/05 04:42:35;;;;;;;11.20;3.50;;;;;;;18.10;74.34;100732.34;84884;1326;25419;-72
2022/07/05 04:44:42;;;;;;;23.90;4.70;;;;;;;18.19;74.15;100729.59;84915;1324;22578;-72
2022/07/05 04:46:50;;;;;;;27.30;4.70;;;;;;;18.26;73.65;100728.60;84914;1324;22581;-71
2022/07/05 04:48:57;;;;;;;12.10;4.20;;;;;;;18.35;73.58;100729.34;84894;1328;22602;-71
2022/07/05 04:51:04;;;;;;;15.40;4.00;;;;;;;18.42;73.73;100734.50;84937;1318;22592;-71
2022/07/05 04:53:12;;;;;;;20.40;3.80;;;;;;;18.48;73.40;100735.69;84882;1327;22585;-71
2022/07/05 04:55:19;;;;;;;15.90;4.00;;;;;;;18.55;73.14;100742.44;84847;1324;22629;-71
2022/07/05 04:57:27;;;;;;;20.30;4.50;;;;;;;18.62;72.59;100743.61;84875;1326;22657;-71
2022/07/05 04:59:34;;;;;;;9.90;3.10;;;;;;;18.69;72.27;100748.13;84930;1326;22648;-71
2022/07/05 05:01:42;;;;;;;5.10;2.50;;;;;;;18.75;71.82;100748.59;84794;1326;22895;-71
2022/07/05 05:03:49;;;;;;;6.50;3.20;;;;;;;18.81;71.09;100754.05;84943;1326;22605;-72
2022/07/05 05:05:57;;;;;;;4.50;2.40;;;;;;;18.85;69.89;100751.67;84945;1325;22764;-71
2022/07/05 05:08:05;;;;;;;13.00;3.10;;;;;;;18.87;70.07;100754.75;84930;1324;22582;-71
2022/07/05 05:10:12;;;;;;;10.00;3.30;;;;;;;18.86;69.61;100756.05;84943;1325;24247;-71
2022/07/05 05:12:20;;;;;;;14.00;3.70;;;;;;;18.87;69.50;100755.29;84887;1326;24363;-71
2022/07/05 05:14:27;;;;;;;10.20;3.00;;;;;;;18.88;69.18;100751.69;84922;1321;22591;-72
2022/07/05 05:16:35;;;;;;;15.80;4.50;;;;;;;18.90;69.22;100749.06;84878;1326;22602;-72
2022/07/05 05:18:42;;;;;;;13.70;4.60;;;;;;;18.92;69.16;100747.85;84894;1324;24443;-72
2022/07/05 05:20:50;;;;;;;12.00;4.50;;;;;;;18.97;68.79;100750.48;84870;1329;22585;-72
2022/07/05 05:22:57;;;;;;;21.70;5.10;;;;;;;19.03;68.41;100754.17;84904;1324;22593;-71
2022/07/05 05:25:05;;;;;;;21.00;4.80;;;;;;;19.11;68.09;100755.93;84882;1325;22597;-72
2022/07/05 05:27:13;;;;;;;20.50;5.30;;;;;;;19.20;68.28;100766.13;84920;1324;22615;-72
2022/07/05 05:29:21;;;;;;;15.90;3.80;;;;;;;19.29;68.12;100763.20;84951;1323;22581;-72
2022/07/05 05:31:29;;;;;;;12.30;3.90;;;;;;;19.38;68.04;100760.84;84819;1328;22599;-72
2022/07/05 05:33:36;;;;;;;18.10;4.10;;;;;;;19.50;68.10;100763.52;84905;1325;22612;-72
2022/07/05 05:35:44;;;;;;;32.50;5.20;;;;;;;19.61;67.48;100762.98;84863;1326;22765;-72
2022/07/05 05:37:55;;;;;;;12.80;3.80;;;;;;;19.71;67.06;100764.40;84896;1324;22597;-72
2022/07/05 05:40:03;;;;;;;6.00;2.70;;;;;;;19.83;66.45;100766.22;84896;1327;25367;-72
2022/07/05 05:42:11;;;;;;;19.60;3.70;;;;;;;19.94;66.30;100767.20;84936;1325;22680;-72
2022/07/05 05:44:19;;;;;;;8.20;3.20;;;;;;;20.05;65.86;100761.06;84905;1322;22612;-72
2022/07/05 05:46:26;;;;;;;6.30;3.20;;;;;;;20.16;65.18;100762.30;84913;1326;22581;-73
2022/07/05 05:48:33;;;;;;;7.70;3.50;;;;;;;20.25;64.84;100761.46;84942;1327;22602;-72
2022/07/05 05:50:41;;;;;;;10.10;5.50;;;;;;;20.31;64.57;100754.61;84888;1329;22619;-71
2022/07/05 05:52:49;;;;;;;15.60;6.80;;;;;;;20.39;64.14;100753.73;84924;1325;22621;-72
2022/07/05 05:54:57;;;;;;;18.40;9.00;;;;;;;20.42;63.08;100749.08;84881;1327;22611;-72
2022/07/05 05:57:04;;;;;;;22.30;9.30;;;;;;;20.46;63.32;100748.06;84918;1324;24568;-72
2022/07/05 05:59:12;;;;;;;29.40;11.70;;;;;;;20.56;63.84;100743.92;84872;1326;25332;-72
2022/07/05 06:01:19;;;;;;;35.50;9.10;;;;;;;20.69;63.15;100743.16;84837;1324;22596;-72
2022/07/05 06:03:28;;;;;;;28.10;7.80;;;;;;;20.76;63.15;100748.86;84766;1326;22568;-72
2022/07/05 06:05:35;;;;;;;34.20;7.20;;;;;;;20.83;62.53;100755.24;84940;1324;22581;-71
2022/07/05 06:07:50;;;;;;;19.20;5.00;;;;;;;20.85;62.50;100752.23;84880;1324;22597;-70
2022/07/05 06:09:58;;;;;;;28.90;7.50;;;;;;;20.88;62.37;100753.98;84908;1319;22744;-72
2022/07/05 06:12:07;;;;;;;42.90;7.90;;;;;;;20.93;62.14;100751.13;84934;1326;25333;-72
2022/07/05 06:14:14;;;;;;;45.20;10.50;;;;;;;21.17;62.90;100749.09;84892;1328;24513;-72
2022/07/05 06:16:21;;;;;;;37.60;5.90;;;;;;;22.05;63.59;100739.45;84932;1324;24310;-72
2022/07/05 06:18:29;;;;;;;35.30;5.40;;;;;;;23.21;61.96;100735.35;84916;1324;22587;-72
2022/07/05 06:20:37;;;;;;;15.70;4.30;;;;;;;24.32;58.19;100733.80;84917;1324;22721;-72
2022/07/05 06:22:45;;;;;;;19.10;3.60;;;;;;;25.39;56.02;100737.90;84904;1324;22579;-72
2022/07/05 06:24:52;;;;;;;14.60;3.60;;;;;;;26.47;53.63;100735.73;84841;1325;22629;-72
2022/07/05 06:27:00;;;;;;;16.80;3.40;;;;;;;27.22;50.86;100740.16;84841;1322;22588;-72
2022/07/05 06:29:07;;;;;;;25.10;5.60;;;;;;;27.91;48.67;100740.71;84738;1318;24333;-72
2022/07/05 06:31:14;;;;;;;13.60;3.60;;;;;;;28.32;45.66;100742.90;84815;1324;22590;-73
2022/07/05 06:33:22;;;;;;;12.60;3.90;;;;;;;28.47;44.94;100744.15;84820;1324;22593;-73
2022/07/05 06:35:30;;;;;;;15.90;4.70;;;;;;;28.75;44.46;100736.58;84819;1326;22601;-73
2022/07/05 06:37:48;;;;;;;13.80;3.70;;;;;;;28.99;43.14;100733.92;84861;1327;26697;-72
2022/07/05 06:39:55;;;;;;;17.50;4.20;;;;;;;29.16;41.31;100734.92;84907;1325;22589;-72
2022/07/05 06:42:03;;;;;;;21.10;4.10;;;;;;;29.18;41.84;100733.34;84898;1327;22596;-72
2022/07/05 06:44:10;;;;;;;15.20;4.30;;;;;;;29.31;41.02;100731.47;84884;1329;22573;-72
2022/07/05 06:46:18;;;;;;;21.80;3.90;;;;;;;29.40;40.63;100729.73;84932;1324;22592;-72
2022/07/05 06:48:25;;;;;;;15.50;3.20;;;;;;;29.44;40.31;100732.55;84883;1327;22632;-73
2022/07/05 06:50:35;;;;;;;23.70;4.20;;;;;;;29.42;38.80;100739.42;84915;1324;22600;-73
2022/07/05 06:52:42;;;;;;;7.90;3.30;;;;;;;29.36;39.41;100737.92;84789;1326;23879;-73
2022/07/05 06:54:50;;;;;;;4.80;1.70;;;;;;;29.37;38.83;100740.52;84881;1322;22666;-72
2022/07/05 06:56:58;;;;;;;16.40;2.70;;;;;;;29.40;39.28;100740.89;84910;1324;22674;-74
2022/07/05 06:59:05;;;;;;;17.50;3.50;;;;;;;29.43;39.08;100739.83;84777;1326;22748;-74
2022/07/05 07:01:12;;;;;;;15.30;3.60;;;;;;;29.59;38.95;100747.64;84842;1324;22586;-74
2022/07/05 07:03:20;;;;;;;21.40;3.90;;;;;;;29.92;39.61;100752.71;84841;1326;22588;-74
2022/07/05 07:05:27;;;;;;;18.40;4.10;;;;;;;30.24;39.38;100751.38;84891;1322;22704;-74
2022/07/05 07:10:01;;;;;;;16.80;3.50;;;;;;;30.47;37.69;100753.95;84937;1325;23998;-73
2022/07/05 07:12:10;;;;;;;32.00;5.30;;;;;;;30.39;37.37;100760.29;84881;1325;22658;-74
2022/07/05 07:14:18;;;;;;;34.10;5.50;;;;;;;30.44;37.59;100754.95;84889;1324;22689;-73
2022/07/05 07:16:25;;;;;;;17.90;3.70;;;;;;;30.68;38.00;100759.40;84888;1326;23102;-75
2022/07/05 07:18:35;;;;;;;6.50;1.70;;;;;;;30.98;37.34;100755.20;84940;1327;23158;-74
2022/07/05 07:20:42;;;;;;;5.00;1.50;;;;;;;31.13;36.29;100753.16;84887;1325;22578;-75
2022/07/05 07:22:50;;;;;;;2.50;1.60;;;;;;;31.13;35.62;100759.27;84932;1325;22615;-74
2022/07/05 07:24:58;;;;;;;5.70;1.80;;;;;;;31.26;36.07;100760.25;84866;1322;22589;-74
2022/07/05 07:27:07;;;;;;;6.00;1.80;;;;;;;31.63;36.40;100758.85;84891;1327;22619;-74
2022/07/05 07:29:15;;;;;;;7.70;1.80;;;;;;;32.18;35.25;100750.58;84886;1326;22861;-74
2022/07/05 07:31:22;;;;;;;4.50;1.50;;;;;;;32.38;34.30;100749.38;84931;1327;22602;-74
2022/07/05 07:33:30;;;;;;;5.60;2.30;;;;;;;32.55;33.91;100745.75;84799;1327;22590;-75
2022/07/05 07:35:38;;;;;;;16.90;4.60;;;;;;;32.85;33.66;100741.99;84842;1324;24298;-74
2022/07/05 07:37:45;;;;;;;14.00;2.90;;;;;;;33.11;33.06;100742.77;84877;1325;22674;-74
2022/07/05 07:39:53;;;;;;;3.60;1.70;;;;;;;33.49;32.21;100748.04;84939;1325;22618;-73
2022/07/05 07:42:00;;;;;;;7.20;2.70;;;;;;;33.88;32.65;100748.61;84855;1326;22665;-72
2022/07/05 07:44:08;;;;;;;5.40;4.00;;;;;;;34.43;32.18;100751.63;84901;1324;22596;-72
2022/07/05 07:46:15;;;;;;;12.00;5.30;;;;;;;34.59;30.41;100746.16;84872;1326;22587;-72
2022/07/05 07:48:22;;;;;;;8.80;4.60;;;;;;;34.53;30.53;100748.33;84871;1327;22585;-72
2022/07/05 07:50:30;;;;;;;8.00;4.70;;;;;;;34.53;30.31;100753.23;84931;1325;23046;-73
2022/07/05 07:52:38;;;;;;;8.50;3.60;;;;;;;34.72;30.20;100748.23;84834;1326;22573;-73
2022/07/05 07:54:45;;;;;;;7.20;3.70;;;;;;;35.00;30.84;100749.91;84839;1324;22591;-73
2022/07/05 07:56:53;;;;;;;2.40;2.10;;;;;;;35.27;30.23;100747.64;84877;1328;22594;-73
2022/07/05 07:59:00;;;;;;;2.70;2.10;;;;;;;35.38;29.94;100748.09;84933;1324;22601;-72
2022/07/05 08:01:10;;;;;;;1.70;1.60;;;;;;;35.51;29.91;100747.50;84824;1326;22594;-73
2022/07/05 08:03:18;;;;;;;2.20;1.50;;;;;;;35.56;28.99;100749.52;84878;1326;22586;-72
2022/07/05 08:05:26;;;;;;;3.50;2.20;;;;;;;35.63;29.36;100749.35;84789;1325;22583;-73
2022/07/05 08:07:33;;;;;;;3.60;2.20;;;;;;;35.83;28.81;100743.30;84851;1324;22569;-73
2022/07/05 08:09:40;;;;;;;6.30;3.90;;;;;;;36.07;29.01;100744.03;84850;1317;22575;-73
2022/07/05 08:11:48;;;;;;;7.80;3.80;;;;;;;36.49;28.06;100739.29;84898;1322;22681;-73
2022/07/05 08:13:56;;;;;;;9.40;3.80;;;;;;;36.68;27.95;100740.55;84819;1324;25546;-72
2022/07/05 08:16:03;;;;;;;5.20;3.00;;;;;;;36.94;27.35;100739.25;84759;1326;24333;-73
2022/07/05 08:23:01;;;;;;;2.60;1.90;;;;;;;37.54;26.30;100740.80;84915;1324;22590;-73
2022/07/05 08:25:09;;;;;;;4.00;1.50;;;;;;;37.73;25.93;100737.48;84893;1326;22588;-73
2022/07/05 08:27:16;;;;;;;3.70;2.00;;;;;;;37.81;26.30;100738.48;84908;1327;22595;-73
2022/07/05 08:29:24;;;;;;;4.40;2.10;;;;;;;37.63;25.52;100739.22;84894;1327;22587;-73
2022/07/05 08:31:34;;;;;;;3.30;1.90;;;;;;;37.32;26.22;100740.16;84935;1324;22604;-73
2022/07/05 08:33:41;;;;;;;1.80;1.60;;;;;;;37.51;26.44;100745.20;84881;1323;25295;-74
2022/07/05 08:35:49;;;;;;;1.80;1.50;;;;;;;37.54;25.87;100745.00;84936;1324;22606;-74
2022/07/05 08:37:56;;;;;;;1.80;1.60;;;;;;;37.37;25.78;100743.48;84943;1325;23127;-74
2022/07/05 08:40:05;;;;;;;1.90;1.40;;;;;;;37.67;25.98;100738.88;84883;1328;22582;-74
2022/07/05 08:42:13;;;;;;;2.00;1.20;;;;;;;38.04;25.93;100735.44;84932;1324;25589;-73
2022/07/05 08:44:23;;;;;;;3.50;1.70;;;;;;;38.20;25.89;100741.69;84887;1325;22687;-73
2022/07/05 08:46:31;;;;;;;2.90;1.80;;;;;;;38.03;25.08;100740.62;84947;1327;22708;-73
2022/07/05 08:48:42;;;;;;;2.50;1.70;;;;;;;37.71;25.75;100737.33;84891;1325;24376;-74
2022/07/05 08:50:52;;;;;;;4.20;2.10;;;;;;;37.62;25.82;100736.94;84890;1324;25370;-73
2022/07/05 08:53:00;;;;;;;5.10;2.30;;;;;;;37.73;26.03;100737.05;84752;1326;25728;-74
2022/07/05 08:55:08;;;;;;;5.40;1.60;;;;;;;37.95;24.93;100735.69;84822;1324;22669;-74
2022/07/05 08:57:16;;;;;;;1.20;1.10;;;;;;;38.01;25.00;100735.27;84850;1328;25553;-74
2022/07/05 08:59:23;;;;;;;2.20;1.80;;;;;;;38.10;24.69;100735.14;84849;1324;22605;-74
2022/07/05 09:01:34;;;;;;;3.60;1.40;;;;;;;37.92;24.53;100731.13;84875;1327;25439;-72
2022/07/05 09:03:45;;;;;;;5.20;2.10;;;;;;;37.92;24.87;100734.20;84914;1324;22592;-74
2022/07/05 09:05:54;;;;;;;2.00;1.10;;;;;;;38.00;24.61;100733.05;84889;1321;23119;-74
2022/07/05 09:08:02;;;;;;;6.50;1.70;;;;;;;37.83;24.55;100728.41;84871;1324;22722;-73
2022/07/05 09:10:11;;;;;;;3.80;1.90;;;;;;;37.43;25.11;100731.66;84836;1325;22616;-74
2022/07/05 09:12:18;;;;;;;1.80;1.70;;;;;;;36.71;25.30;100733.64;84934;1325;22756;-74
2022/07/05 09:14:26;;;;;;;1.80;1.40;;;;;;;35.91;25.58;100735.36;84884;1325;22611;-74
2022/07/05 09:16:34;;;;;;;2.60;1.70;;;;;;;35.32;26.41;100735.91;84875;1324;22653;-74
2022/07/05 09:18:46;;;;;;;1.50;1.40;;;;;;;34.80;27.17;100733.69;84892;1325;25532;-73
2022/07/05 09:20:54;;;;;;;6.70;1.60;;;;;;;34.59;27.84;100737.89;84889;1322;22590;-73
2022/07/05 09:23:01;;;;;;;2.00;1.50;;;;;;;34.52;27.95;100735.00;84740;1325;22593;-73
2022/07/05 09:25:19;;;;;;;3.70;1.80;;;;;;;34.60;28.20;100737.34;84805;1324;24463;-73
2022/07/05 09:27:27;;;;;;;1.50;1.40;;;;;;;34.72;28.74;100737.20;84771;1318;22575;-73
2022/07/05 09:29:35;;;;;;;3.10;1.20;;;;;;;34.83;28.11;100738.30;84857;1324;22682;-73
2022/07/05 09:31:44;;;;;;;1.90;1.50;;;;;;;34.73;27.66;100737.83;84766;1326;22592;-73
2022/07/05 09:33:53;;;;;;;3.10;1.50;;;;;;;34.57;28.00;100739.73;84930;1324;22588;-73
2022/07/05 09:36:01;;;;;;;3.80;1.60;;;;;;;34.35;28.94;100739.15;84851;1326;22605;-73
2022/07/05 09:38:19;;;;;;;3.90;1.50;;;;;;;34.08;28.76;100740.70;84884;1324;22614;-73
2022/07/05 09:40:27;;;;;;;2.40;1.70;;;;;;;33.90;29.30;100737.48;84832;1324;22686;-74
2022/07/05 09:42:34;;;;;;;1.80;1.50;;;;;;;33.75;29.62;100734.79;84907;1326;25442;-74
2022/07/05 09:44:44;;;;;;;2.60;1.60;;;;;;;33.72;30.99;100729.14;84838;1329;22585;-74
2022/07/05 09:46:52;;;;;;;6.10;1.70;;;;;;;33.72;29.77;100726.98;84952;1321;22596;-74
2022/07/05 09:48:59;;;;;;;5.90;1.80;;;;;;;33.58;29.52;100724.52;84881;1324;22646;-74
2022/07/05 09:51:11;;;;;;;1.80;1.70;;;;;;;33.35;29.59;100723.97;84925;1324;22613;-73
2022/07/05 09:53:18;;;;;;;1.50;1.30;;;;;;;33.11;30.41;100721.13;84785;1326;24246;-73
2022/07/05 09:55:26;;;;;;;2.20;1.80;;;;;;;33.10;31.30;100723.13;84939;1326;22583;-74
2022/07/05 09:57:35;;;;;;;5.90;1.80;;;;;;;32.98;30.39;100722.98;84855;1327;25321;-74